createdAt,value
2023-05-10T00:04:34.067Z,100983.00
2023-05-10T00:09:44.250Z,100979.20
2023-05-10T00:14:53.895Z,100976.40
2023-05-10T00:20:06.114Z,100981.80
2023-05-10T00:25:16.685Z,100974.20
2023-05-10T00:30:26.851Z,100977.20
2023-05-10T00:35:36.508Z,100975.40
2023-05-10T00:40:46.290Z,100970.40
2023-05-10T00:45:57.226Z,100960.80
2023-05-10T00:51:07.659Z,100954.80
2023-05-10T00:56:17.837Z,100957.80
2023-05-10T01:01:27.799Z,100955.00
2023-05-10T01:06:37.657Z,100958.00
2023-05-10T01:11:47.449Z,100953.80
2023-05-10T01:16:58.552Z,100950.00
2023-05-10T01:22:25.094Z,100947.40
2023-05-10T01:28:04.349Z,100937.60
2023-05-10T01:33:20.630Z,100938.80
2023-05-10T01:38:41.837Z,100937.40
2023-05-10T01:44:00.106Z,100933.40
2023-05-10T01:49:16.058Z,100924.20
2023-05-10T01:54:27.690Z,100930.20
2023-05-10T01:59:42.960Z,100930.00
2023-05-10T02:04:55.787Z,100928.60
2023-05-10T02:10:07.713Z,100936.40
2023-05-10T02:15:24.594Z,100930.80
2023-05-10T02:20:36.440Z,100930.40
2023-05-10T02:25:47.344Z,100926.40
2023-05-10T02:30:58.333Z,100938.40
2023-05-10T02:36:11.911Z,100931.60
2023-05-10T02:41:24.099Z,100923.20
2023-05-10T02:46:34.110Z,100922.00
2023-05-10T02:51:53.453Z,100912.00
2023-05-10T02:57:08.398Z,100910.20
2023-05-10T03:02:18.449Z,100913.40
2023-05-10T03:07:28.496Z,100916.20
2023-05-10T03:12:59.904Z,100917.60
2023-05-10T03:18:15.835Z,100910.40
2023-05-10T03:23:35.239Z,100915.80
2023-05-10T03:28:46.329Z,100905.80
2023-05-10T03:33:56.598Z,100905.20
2023-05-10T03:39:06.235Z,100896.20
2023-05-10T03:44:16.057Z,100892.00
2023-05-10T03:49:25.945Z,100900.60
2023-05-10T03:54:35.781Z,100897.00
2023-05-10T03:59:46.180Z,100903.40
2023-05-10T04:04:55.767Z,100904.60
2023-05-10T04:10:05.852Z,100905.20
2023-05-10T04:15:16.344Z,100911.80
2023-05-10T04:20:26.412Z,100916.00
2023-05-10T04:25:38.330Z,100915.20
2023-05-10T04:30:48.396Z,100920.60
2023-05-10T04:35:58.261Z,100924.40
2023-05-10T04:41:15.131Z,100920.00
2023-05-10T04:46:24.811Z,100922.40
2023-05-10T04:51:34.593Z,100916.00
2023-05-10T04:56:44.904Z,100916.20
2023-05-10T05:01:54.820Z,100918.80
2023-05-10T05:07:04.432Z,100918.80
2023-05-10T05:12:15.430Z,100919.00
2023-05-10T05:17:25.231Z,100917.60
2023-05-10T05:22:35.145Z,100917.60
2023-05-10T05:27:44.704Z,100921.20
2023-05-10T05:32:54.468Z,100924.00
2023-05-10T05:38:04.350Z,100922.00
2023-05-10T05:43:14.807Z,100915.20
2023-05-10T05:48:24.929Z,100927.80
2023-05-10T05:53:35.990Z,100935.20
2023-05-10T05:58:46.018Z,100936.40
2023-05-10T06:03:56.069Z,100938.60
2023-05-10T06:09:05.904Z,100937.20
2023-05-10T06:14:16.571Z,100940.40
2023-05-10T06:19:27.510Z,100943.60
2023-05-10T06:24:37.324Z,100944.40
2023-05-10T06:29:47.355Z,100948.20
2023-05-10T06:34:57.382Z,100949.20
2023-05-10T06:40:08.956Z,100957.40
2023-05-10T06:45:19.907Z,100948.40
2023-05-10T06:50:30.021Z,100953.20
2023-05-10T06:55:40.306Z,100951.60
2023-05-10T07:00:50.582Z,100950.20
2023-05-10T07:06:11.342Z,100943.80
2023-05-10T07:11:26.140Z,100956.60
2023-05-10T07:16:35.955Z,100952.20
2023-05-10T07:21:46.299Z,100948.40
2023-05-10T07:26:56.156Z,100960.00
2023-05-10T07:32:06.282Z,100958.20
2023-05-10T07:37:16.530Z,100952.80
2023-05-10T07:42:26.222Z,100959.60
2023-05-10T07:47:36.622Z,100963.00
2023-05-10T07:52:46.473Z,100955.40
2023-05-10T07:57:56.365Z,100958.20
2023-05-10T08:03:06.560Z,100957.80
2023-05-10T08:08:16.611Z,100954.40
2023-05-10T08:13:26.334Z,100956.20
2023-05-10T08:18:35.958Z,100953.80
2023-05-10T08:23:46.015Z,100949.80
2023-05-10T08:28:55.915Z,100958.80
2023-05-10T08:34:05.745Z,100946.80
2023-05-10T08:39:26.688Z,100942.80
2023-05-10T08:44:39.471Z,100961.20
2023-05-10T08:49:52.448Z,100958.60
2023-05-10T08:55:03.050Z,100948.80
2023-05-10T09:00:15.983Z,100945.80
2023-05-10T09:05:25.842Z,100956.40
2023-05-10T09:10:36.037Z,100953.40
2023-05-10T09:15:46.221Z,100967.00
2023-05-10T09:20:56.847Z,100965.40
2023-05-10T09:26:10.603Z,100956.60
2023-05-10T09:31:20.306Z,100970.60
2023-05-10T09:36:30.473Z,100956.60
2023-05-10T09:41:40.217Z,100953.60
2023-05-10T09:46:55.191Z,100953.80
2023-05-10T09:52:09.936Z,100955.60
2023-05-10T09:57:28.136Z,100957.60
2023-05-10T10:02:38.216Z,100945.80
2023-05-10T10:07:50.569Z,100944.60
2023-05-10T10:13:00.682Z,100934.60
2023-05-10T10:18:15.329Z,100933.40
2023-05-10T10:23:25.253Z,100919.80
2023-05-10T10:28:49.823Z,100900.20
2023-05-10T10:34:09.172Z,100907.40
2023-05-10T10:39:20.640Z,100905.60
2023-05-10T10:44:39.652Z,100895.40
2023-05-10T10:50:05.974Z,100896.80
2023-05-10T10:55:20.201Z,100890.80
2023-05-10T11:00:35.708Z,100882.20
2023-05-10T11:05:50.008Z,100877.20
2023-05-10T11:11:10.086Z,100885.60
2023-05-10T11:16:28.195Z,100878.80
2023-05-10T11:21:47.403Z,100880.80
2023-05-10T11:26:57.719Z,100866.20
2023-05-10T11:32:10.144Z,100872.80
2023-05-10T11:37:20.847Z,100855.80
2023-05-10T11:42:31.756Z,100849.60
2023-05-10T11:47:43.787Z,100861.40
2023-05-10T11:52:57.396Z,100859.40
2023-05-10T11:58:07.946Z,100853.60
2023-05-10T12:03:18.032Z,100853.40
2023-05-10T12:08:29.770Z,100856.00
2023-05-10T12:13:47.877Z,100854.00
2023-05-10T12:18:59.137Z,100850.40
2023-05-10T12:24:10.055Z,100847.00
2023-05-10T12:29:21.512Z,100851.20
2023-05-10T12:34:36.219Z,100851.40
2023-05-10T12:39:49.611Z,100853.80
2023-05-10T12:45:02.645Z,100856.40
2023-05-10T12:50:13.822Z,100853.20
2023-05-10T12:55:23.420Z,100855.20
2023-05-10T13:00:32.904Z,100850.80
2023-05-10T13:05:42.684Z,100834.40
2023-05-10T13:10:52.604Z,100842.40
2023-05-10T13:16:02.072Z,100843.80
2023-05-10T13:21:12.557Z,100822.20
2023-05-10T13:26:22.479Z,100829.60
2023-05-10T13:31:32.476Z,100819.40
2023-05-10T13:36:42.329Z,100829.40
2023-05-10T13:41:53.799Z,100825.80
2023-05-10T13:47:03.697Z,100817.00
2023-05-10T13:52:13.298Z,100818.60
2023-05-10T13:57:22.996Z,100812.60
2023-05-10T14:02:32.680Z,100801.60
2023-05-10T14:07:42.330Z,100807.80
2023-05-10T14:12:52.085Z,100805.60
2023-05-10T14:18:01.742Z,100804.80
2023-05-10T14:23:12.098Z,100805.00
2023-05-10T14:28:22.104Z,100805.20
2023-05-10T14:33:31.800Z,100809.40
2023-05-10T14:38:41.662Z,100809.40
2023-05-10T14:43:51.155Z,100812.00
2023-05-10T14:49:00.613Z,100803.60
2023-05-10T14:54:10.305Z,100806.20
2023-05-10T14:59:19.760Z,100800.00
2023-05-10T15:04:29.836Z,100801.40
2023-05-10T15:09:40.082Z,100794.80
2023-05-10T15:14:49.963Z,100796.80
2023-05-10T15:20:00.130Z,100787.20
2023-05-10T15:25:11.541Z,100789.20
2023-05-10T15:30:21.648Z,100766.40
2023-05-10T15:35:31.744Z,100698.40
2023-05-10T15:40:41.508Z,100704.00
2023-05-10T15:45:51.642Z,100701.40
2023-05-10T15:51:01.672Z,100706.40
2023-05-10T15:56:12.600Z,100708.40
2023-05-10T16:01:22.270Z,100702.20
2023-05-10T16:06:32.983Z,100697.40
2023-05-10T16:11:44.310Z,100701.40
2023-05-10T16:16:54.346Z,100697.20
2023-05-10T16:22:04.470Z,100690.00
2023-05-10T16:27:14.234Z,100676.20
2023-05-10T16:32:24.188Z,100689.20
2023-05-10T16:37:34.787Z,100690.00
2023-05-10T16:42:44.583Z,100686.80
2023-05-10T16:47:55.288Z,100690.60
2023-05-10T16:53:05.177Z,100676.20
2023-05-10T16:58:15.057Z,100679.40
2023-05-10T17:03:24.913Z,100678.20
2023-05-10T17:08:34.489Z,100675.80
2023-05-10T17:13:44.445Z,100683.80
2023-05-10T17:18:54.303Z,100683.80
2023-05-10T17:24:04.191Z,100696.00
2023-05-10T17:29:14.447Z,100722.00
2023-05-10T17:34:24.308Z,100722.20
2023-05-10T17:39:34.349Z,100728.20
2023-05-10T17:44:44.526Z,100753.20
2023-05-10T17:49:54.987Z,100769.00
2023-05-10T17:55:05.307Z,100808.60
2023-05-10T18:00:18.874Z,100874.80
2023-05-10T18:05:28.682Z,100873.40
2023-05-10T18:10:41.363Z,100872.80
2023-05-10T18:15:51.661Z,100879.20
2023-05-10T18:21:01.547Z,100865.80
2023-05-10T18:26:13.331Z,100875.20
2023-05-10T18:31:23.420Z,100880.00
2023-05-10T18:36:33.589Z,100878.00
2023-05-10T18:41:43.866Z,100880.60
2023-05-10T18:46:54.549Z,100886.20
2023-05-10T18:52:04.498Z,100900.40
2023-05-10T18:57:14.817Z,100895.20
2023-05-10T19:02:25.582Z,100887.40
2023-05-10T19:07:35.647Z,100895.00
2023-05-10T19:12:45.405Z,100893.20
2023-05-10T19:17:55.366Z,100893.80
2023-05-10T19:23:10.216Z,100900.60
2023-05-10T19:28:20.621Z,100898.80
2023-05-10T19:33:30.880Z,100885.40
2023-05-10T19:38:40.990Z,100887.00
2023-05-10T19:43:50.649Z,100890.40
2023-05-10T19:49:00.496Z,100899.00
2023-05-10T19:54:10.574Z,100904.00
2023-05-10T19:59:20.528Z,100906.60
2023-05-10T20:04:30.584Z,100915.80
2023-05-10T20:09:40.172Z,100918.60
2023-05-10T20:14:49.727Z,100920.80
2023-05-10T20:19:59.509Z,100909.20
2023-05-10T20:25:11.548Z,100911.80
2023-05-10T20:30:21.678Z,100914.00
2023-05-10T20:35:31.814Z,100909.00
2023-05-10T20:40:41.984Z,100915.00
2023-05-10T20:45:51.997Z,100911.80
2023-05-10T20:51:02.323Z,100910.20
2023-05-10T20:56:13.221Z,100911.80
2023-05-10T21:01:23.003Z,100915.00
2023-05-10T21:06:33.110Z,100911.20
2023-05-10T21:11:42.881Z,100907.80
2023-05-10T21:16:52.620Z,100914.60
2023-05-10T21:22:02.223Z,100911.40
2023-05-10T21:27:11.783Z,100911.80
2023-05-10T21:32:21.699Z,100913.80
2023-05-10T21:37:31.583Z,100908.80
2023-05-10T21:42:41.199Z,100909.60
2023-05-10T21:47:50.835Z,100911.60
2023-05-10T21:53:00.616Z,100912.20
2023-05-10T21:58:10.236Z,100911.20
2023-05-10T22:03:19.953Z,100913.80
2023-05-10T22:08:29.705Z,100910.80
2023-05-10T22:13:40.288Z,100913.80
2023-05-10T22:18:50.220Z,100919.60
2023-05-10T22:24:00.015Z,100927.00
2023-05-10T22:29:09.767Z,100922.80
2023-05-10T22:34:19.948Z,100924.20
2023-05-10T22:39:29.466Z,100929.00
2023-05-10T22:44:39.274Z,100922.20
2023-05-10T22:49:48.910Z,100924.60
2023-05-10T22:54:59.063Z,100927.00
2023-05-10T23:00:12.244Z,100926.80
2023-05-10T23:05:22.997Z,100924.80
2023-05-10T23:10:32.624Z,100920.40
2023-05-10T23:15:43.925Z,100924.00
2023-05-10T23:20:54.244Z,100923.60
2023-05-10T23:26:04.532Z,100928.60
2023-05-10T23:31:14.175Z,100917.00
2023-05-10T23:36:24.234Z,100925.20
2023-05-10T23:41:33.987Z,100925.20
2023-05-10T23:46:43.646Z,100929.60
2023-05-10T23:51:53.351Z,100938.00
2023-05-10T23:57:03.529Z,100940.00
